createdAt,value
2023-03-29T00:38:54.867Z,24.37
2023-03-29T00:49:36.196Z,24.46
2023-03-29T00:52:46.541Z,24.97
2023-03-29T00:56:06.877Z,23.68
2023-03-29T00:59:21.882Z,23.82
2023-03-29T01:02:40.155Z,25.88
2023-03-29T01:05:55.881Z,25.65
2023-03-29T01:09:12.900Z,26.03
2023-03-29T01:12:31.342Z,27.88
2023-03-29T01:15:38.451Z,30.63
2023-03-29T01:18:47.209Z,30.29
2023-03-29T01:22:13.925Z,32.11
2023-03-29T01:25:35.979Z,30.74
2023-03-29T01:28:54.855Z,30.74
2023-03-29T01:32:22.495Z,31.48
2023-03-29T01:58:52.944Z,31.83
2023-03-29T02:02:05.790Z,33.50
2023-03-29T02:05:20.305Z,37.03
2023-03-29T02:08:47.057Z,44.15
2023-03-29T02:15:57.267Z,52.78
2023-03-29T02:19:05.197Z,56.53
2023-03-29T02:22:13.866Z,50.17
2023-03-29T02:25:24.755Z,51.51
2023-03-29T02:28:34.152Z,59.19
2023-03-29T02:31:53.829Z,62.46
2023-03-29T02:35:13.140Z,64.78
2023-03-29T02:38:20.508Z,69.23
2023-03-29T02:41:30.753Z,69.50
2023-03-29T02:44:45.234Z,69.01
2023-03-29T02:48:00.489Z,71.34
2023-03-29T02:51:20.057Z,74.98
2023-03-29T02:54:32.140Z,75.63
2023-03-29T02:57:41.120Z,83.81
2023-03-29T03:00:51.747Z,94.60
2023-03-29T03:04:02.597Z,90.48
2023-03-29T03:07:23.094Z,92.75
2023-03-29T03:10:39.535Z,96.89
2023-03-29T03:13:47.059Z,100.48
2023-03-29T03:20:59.568Z,103.50
2023-03-29T03:24:08.220Z,106.02
2023-03-29T03:30:52.010Z,109.48
2023-03-29T03:42:11.997Z,103.66
2023-03-29T03:45:24.943Z,104.58
2023-03-29T03:49:00.554Z,101.91
2023-03-29T03:56:09.264Z,101.69
2023-03-29T04:03:26.782Z,108.46
2023-03-29T04:06:33.857Z,101.90
2023-03-29T04:09:58.564Z,109.03
2023-03-29T04:13:26.589Z,111.71
2023-03-29T04:16:50.996Z,118.24
2023-03-29T04:20:31.146Z,104.05
2023-03-29T04:23:47.034Z,105.36
2023-03-29T04:26:55.446Z,105.11
2023-03-29T04:30:03.287Z,105.83
2023-03-29T04:33:34.563Z,109.31
2023-03-29T04:36:44.157Z,112.23
2023-03-29T04:40:07.482Z,119.27
2023-03-29T04:43:26.088Z,115.23
2023-03-29T04:46:40.688Z,116.99
2023-03-29T04:50:22.141Z,112.70
2023-03-29T04:53:31.696Z,116.28
2023-03-29T04:56:38.329Z,118.20
2023-03-29T05:00:15.669Z,111.70
2023-03-29T05:03:42.757Z,112.73
2023-03-29T05:06:57.727Z,112.44
2023-03-29T05:25:47.961Z,95.95
2023-03-29T05:28:58.004Z,94.86
2023-03-29T06:06:56.086Z,36.69
2023-03-29T06:25:55.205Z,30.68
2023-03-29T06:29:05.617Z,27.48
2023-03-29T06:32:13.160Z,26.58
2023-03-29T06:39:38.412Z,26.47
2023-03-29T06:43:05.640Z,25.33
2023-03-29T06:46:31.127Z,27.39
2023-03-29T06:50:05.046Z,28.73
2023-03-29T06:53:18.651Z,29.60
2023-03-29T06:56:35.178Z,31.33
2023-03-29T06:59:49.515Z,32.55
2023-03-29T07:03:13.514Z,35.00
2023-03-29T07:06:20.796Z,30.54
2023-03-29T07:09:30.039Z,28.38
2023-03-29T07:12:54.881Z,26.52
2023-03-29T07:16:02.176Z,26.18
2023-03-29T07:19:29.114Z,22.15
2023-03-29T07:22:35.965Z,19.44
2023-03-29T07:25:43.561Z,17.42
2023-03-29T07:28:50.745Z,16.95
2023-03-29T07:31:57.735Z,16.36
2023-03-29T07:35:26.865Z,17.30
2023-03-29T07:38:34.026Z,16.53
2023-03-29T07:41:49.738Z,15.58
2023-03-29T07:44:56.019Z,14.09
2023-03-29T07:48:03.694Z,13.90
2023-03-29T07:51:29.639Z,13.00
2023-03-29T07:54:46.975Z,11.95
2023-03-29T07:58:07.297Z,11.74
2023-03-29T08:01:18.731Z,12.02
2023-03-29T08:04:52.060Z,12.13
2023-03-29T08:08:27.043Z,11.43
2023-03-29T08:11:38.856Z,11.51
2023-03-29T08:14:53.718Z,11.60
2023-03-29T08:18:11.016Z,11.40
2023-03-29T08:21:17.818Z,11.39
2023-03-29T08:24:30.367Z,11.55
2023-03-29T08:27:42.712Z,11.33
2023-03-29T08:30:50.565Z,11.42
2023-03-29T08:33:57.934Z,11.98
2023-03-29T08:37:24.882Z,11.64
2023-03-29T08:40:38.182Z,11.29
2023-03-29T08:44:11.607Z,11.32
2023-03-29T08:47:38.146Z,12.52
2023-03-29T08:50:53.666Z,12.74
2023-03-29T08:54:09.564Z,12.02
2023-03-29T08:57:52.083Z,10.89
2023-03-29T09:01:12.158Z,10.22
2023-03-29T09:04:38.690Z,9.46
2023-03-29T09:07:56.411Z,7.74
2023-03-29T09:11:31.861Z,8.16
2023-03-29T09:15:09.510Z,6.42
2023-03-29T09:18:37.363Z,5.33
2023-03-29T09:22:00.115Z,5.61
2023-03-29T09:25:21.923Z,6.29
2023-03-29T09:28:40.381Z,6.60
2023-03-29T09:31:50.531Z,4.78
2023-03-29T09:35:18.529Z,4.28
2023-03-29T09:38:26.085Z,6.48
2023-03-29T09:41:41.839Z,6.30
2023-03-29T09:44:55.774Z,4.62
2023-03-29T09:48:17.709Z,5.25
2023-03-29T09:51:37.007Z,5.50
2023-03-29T09:54:44.181Z,5.88
2023-03-29T09:58:18.970Z,5.77
2023-03-29T10:01:41.782Z,5.29
2023-03-29T10:05:01.068Z,5.51
2023-03-29T10:08:22.947Z,4.50
2023-03-29T10:11:36.472Z,4.95
2023-03-29T10:14:51.490Z,5.74
2023-03-29T10:18:04.361Z,5.22
2023-03-29T10:21:20.518Z,5.29
2023-03-29T10:24:30.009Z,5.18
2023-03-29T10:27:37.569Z,4.81
2023-03-29T10:30:44.020Z,4.74
2023-03-29T10:33:57.328Z,4.13
2023-03-29T10:37:08.567Z,4.04
2023-03-29T10:40:28.855Z,4.80
2023-03-29T10:43:42.645Z,4.73
2023-03-29T10:46:49.372Z,4.96
2023-03-29T10:49:59.017Z,6.22
2023-03-29T10:53:21.539Z,4.93
2023-03-29T10:56:42.436Z,3.95
2023-03-29T11:00:05.089Z,4.46
2023-03-29T11:03:49.535Z,4.76
2023-03-29T11:07:22.820Z,4.82
2023-03-29T11:10:51.796Z,5.14
2023-03-29T11:14:16.065Z,4.90
2023-03-29T11:17:51.116Z,4.47
2023-03-29T11:21:13.116Z,13.66
2023-03-29T11:24:37.352Z,4.62
2023-03-29T11:27:59.757Z,5.33
2023-03-29T11:31:22.180Z,5.34
2023-03-29T11:34:47.118Z,5.73
2023-03-29T11:38:05.776Z,6.20
2023-03-29T11:41:22.297Z,5.70
2023-03-29T11:44:34.492Z,6.36
2023-03-29T11:47:48.852Z,5.96
2023-03-29T11:51:07.032Z,5.53
2023-03-29T11:54:24.443Z,21.55
2023-03-29T11:57:40.260Z,27.42
2023-03-29T12:00:56.566Z,16.52
2023-03-29T12:04:13.374Z,11.90
2023-03-29T12:07:30.987Z,5.62
2023-03-29T12:10:45.153Z,4.57
2023-03-29T12:13:59.618Z,4.68
2023-03-29T12:17:18.486Z,8.46
2023-03-29T12:20:32.265Z,4.83
2023-03-29T12:23:41.626Z,5.85
2023-03-29T12:27:20.941Z,5.24
2023-03-29T12:30:45.850Z,5.33
2023-03-29T12:34:35.154Z,5.30
2023-03-29T12:38:22.490Z,10.33
2023-03-29T12:41:52.137Z,7.06
2023-03-29T12:45:40.304Z,5.93
2023-03-29T12:48:54.045Z,5.88
2023-03-29T12:52:07.904Z,5.55
2023-03-29T12:55:33.177Z,6.40
2023-03-29T12:58:56.285Z,6.30
2023-03-29T13:02:10.057Z,5.34
2023-03-29T13:05:36.567Z,5.90
2023-03-29T13:08:48.759Z,5.65
2023-03-29T13:11:58.846Z,5.47
2023-03-29T13:15:25.471Z,5.91
2023-03-29T13:18:58.129Z,4.77
2023-03-29T13:22:33.083Z,4.84
2023-03-29T13:26:11.642Z,5.46
2023-03-29T13:29:48.233Z,5.56
2023-03-29T13:33:17.753Z,6.11
2023-03-29T13:36:48.229Z,6.74
2023-03-29T13:39:58.439Z,5.55
2023-03-29T13:43:24.625Z,5.57
2023-03-29T13:46:51.404Z,8.19
2023-03-29T13:50:05.624Z,5.98
2023-03-29T13:53:28.182Z,9.32
2023-03-29T13:56:45.251Z,6.54
2023-03-29T14:00:02.827Z,5.42
2023-03-29T14:03:31.185Z,6.09
2023-03-29T14:06:41.910Z,6.56
2023-03-29T14:09:54.048Z,6.29
2023-03-29T14:13:04.164Z,5.89
2023-03-29T14:16:16.303Z,8.06
2023-03-29T14:19:33.263Z,44.51
2023-03-29T14:22:40.838Z,134.59
2023-03-29T14:25:46.975Z,242.14
2023-03-29T14:28:59.098Z,28.61
2023-03-29T14:32:19.134Z,6.68
2023-03-29T14:35:35.340Z,7.80
2023-03-29T14:38:42.725Z,8.14
2023-03-29T14:41:55.067Z,25.24
2023-03-29T14:45:09.537Z,12.07
2023-03-29T14:48:19.790Z,322.34
2023-03-29T14:51:30.776Z,32.73
2023-03-29T14:54:38.749Z,34.84
2023-03-29T14:57:46.221Z,5.98
2023-03-29T15:00:55.530Z,6.24
2023-03-29T15:04:09.245Z,6.76
2023-03-29T15:07:17.149Z,7.63
2023-03-29T15:10:23.765Z,7.74
2023-03-29T15:13:31.937Z,50.28
2023-03-29T15:16:45.024Z,38.67
2023-03-29T15:19:56.384Z,24.83
2023-03-29T15:23:06.913Z,7.29
2023-03-29T15:26:23.492Z,8.92
2023-03-29T15:29:42.159Z,19.84
2023-03-29T15:32:49.299Z,11.66
2023-03-29T15:35:58.275Z,27.36
2023-03-29T15:39:05.044Z,38.62
2023-03-29T15:42:13.676Z,103.19
2023-03-29T15:45:26.050Z,99.60
2023-03-29T15:48:33.983Z,60.92
2023-03-29T15:51:44.611Z,32.41
2023-03-29T15:54:50.627Z,32.60
2023-03-29T15:57:59.094Z,15.30
2023-03-29T16:01:23.801Z,10.03
2023-03-29T16:04:30.659Z,70.94
2023-03-29T16:07:39.143Z,100.14
2023-03-29T16:10:47.298Z,61.32
2023-03-29T16:13:53.489Z,19.00
2023-03-29T16:17:06.168Z,11.03
2023-03-29T16:20:15.149Z,10.02
2023-03-29T16:23:24.721Z,11.99
2023-03-29T16:26:32.207Z,14.88
2023-03-29T16:29:41.858Z,14.09
2023-03-29T16:32:48.218Z,14.35
2023-03-29T16:35:55.461Z,22.15
2023-03-29T16:39:05.897Z,24.74
2023-03-29T16:42:14.813Z,17.27
2023-03-29T16:45:22.745Z,15.06
2023-03-29T16:48:30.098Z,17.22
2023-03-29T16:51:36.295Z,22.63
2023-03-29T16:54:45.646Z,18.88
2023-03-29T16:57:54.823Z,17.86
2023-03-29T17:01:02.255Z,20.26
2023-03-29T17:04:08.502Z,17.18
2023-03-29T17:07:15.707Z,18.18
2023-03-29T17:10:24.984Z,20.31
2023-03-29T17:13:32.650Z,28.65
2023-03-29T17:16:39.288Z,27.79
2023-03-29T17:19:46.119Z,20.47
2023-03-29T17:22:54.145Z,22.27
2023-03-29T17:26:03.709Z,20.72
2023-03-29T17:29:09.812Z,21.99
2023-03-29T17:32:16.785Z,17.76
2023-03-29T17:35:22.956Z,15.04
2023-03-29T17:38:30.603Z,15.39
2023-03-29T17:41:39.335Z,12.16
2023-03-29T17:44:46.413Z,11.04
2023-03-29T17:47:55.455Z,12.70
2023-03-29T17:51:02.314Z,12.61
2023-03-29T17:54:08.682Z,12.05
2023-03-29T17:57:17.993Z,10.99
2023-03-29T18:00:25.148Z,30.35
2023-03-29T18:03:32.104Z,14.52
2023-03-29T18:06:38.046Z,21.98
2023-03-29T18:09:44.721Z,48.31
2023-03-29T18:12:53.335Z,43.24
2023-03-29T18:16:00.193Z,39.74
2023-03-29T18:19:06.227Z,57.76
2023-03-29T18:22:12.964Z,89.12
2023-03-29T18:25:21.180Z,61.49
2023-03-29T18:28:33.763Z,55.66
2023-03-29T18:31:39.991Z,48.71
2023-03-29T18:34:46.761Z,54.91
2023-03-29T18:37:52.842Z,56.97
2023-03-29T18:40:59.727Z,38.28
2023-03-29T18:44:08.723Z,36.79
2023-03-29T18:47:15.329Z,24.48
2023-03-29T18:50:21.559Z,25.99
2023-03-29T18:53:28.574Z,23.81
2023-03-29T18:56:35.655Z,25.18
2023-03-29T18:59:44.967Z,27.50
2023-03-29T19:02:52.230Z,27.91
2023-03-29T19:05:59.196Z,25.07
2023-03-29T19:09:05.916Z,24.05
2023-03-29T19:12:12.848Z,25.10
2023-03-29T19:15:22.442Z,26.57
2023-03-29T19:18:29.461Z,29.43
2023-03-29T19:21:36.225Z,27.74
2023-03-29T19:24:43.048Z,29.97
2023-03-29T19:27:50.544Z,29.36
2023-03-29T19:31:02.142Z,31.44
2023-03-29T19:34:09.930Z,27.28
2023-03-29T19:37:17.794Z,23.65
2023-03-29T19:40:23.889Z,27.34
2023-03-29T19:43:31.918Z,25.99
2023-03-29T19:46:40.746Z,26.74
2023-03-29T19:49:47.929Z,26.19
2023-03-29T19:52:54.708Z,30.02
2023-03-29T19:56:02.265Z,31.29
2023-03-29T19:59:09.128Z,32.46
2023-03-29T20:02:18.448Z,34.30
2023-03-29T20:05:24.489Z,35.52
2023-03-29T20:08:31.439Z,39.07
2023-03-29T20:11:37.629Z,43.36
2023-03-29T20:14:44.313Z,48.38
2023-03-29T20:17:54.146Z,50.33
2023-03-29T20:21:02.192Z,56.75
2023-03-29T20:24:09.630Z,57.65
2023-03-29T20:27:16.946Z,54.63
2023-03-29T20:30:24.005Z,51.54
2023-03-29T20:33:33.536Z,50.56
2023-03-29T20:36:40.528Z,48.99
2023-03-29T20:39:47.946Z,44.96
2023-03-29T20:42:55.917Z,37.34
2023-03-29T20:46:03.042Z,40.20
2023-03-29T20:49:12.150Z,44.86
2023-03-29T20:52:21.197Z,39.45
2023-03-29T20:55:30.741Z,35.94
2023-03-29T20:58:42.443Z,40.41
2023-03-29T21:01:50.489Z,29.22
2023-03-29T21:05:02.650Z,25.97
2023-03-29T21:08:09.075Z,29.23
2023-03-29T21:11:17.418Z,26.48
2023-03-29T21:14:23.454Z,24.90
2023-03-29T21:17:30.428Z,24.00
2023-03-29T21:20:40.663Z,23.16
2023-03-29T21:23:47.704Z,21.98
2023-03-29T21:26:53.651Z,22.01
2023-03-29T21:30:00.256Z,21.35
2023-03-29T21:33:06.210Z,21.31
2023-03-29T21:36:16.817Z,22.49
2023-03-29T21:39:22.769Z,25.90
2023-03-29T21:42:29.509Z,25.23
2023-03-29T21:45:35.925Z,28.83
2023-03-29T21:48:42.669Z,30.36
2023-03-29T21:51:51.541Z,26.66
2023-03-29T21:54:58.287Z,25.25
2023-03-29T21:58:04.200Z,26.28
2023-03-29T22:01:11.904Z,25.65
2023-03-29T22:04:33.202Z,27.68
2023-03-29T22:07:45.744Z,22.95
2023-03-29T22:10:55.583Z,27.68
2023-03-29T22:14:02.240Z,27.01
2023-03-29T22:17:09.676Z,24.24
2023-03-29T22:20:18.614Z,24.63
2023-03-29T22:23:28.031Z,24.88
2023-03-29T22:26:36.234Z,22.31
2023-03-29T22:29:42.416Z,21.92
2023-03-29T22:32:49.025Z,20.10
2023-03-29T22:35:54.979Z,20.42
2023-03-29T22:39:04.526Z,20.72
2023-03-29T22:42:10.564Z,20.12
2023-03-29T22:45:17.498Z,19.73
2023-03-29T22:48:23.471Z,18.21
2023-03-29T22:51:30.221Z,17.52
2023-03-29T22:54:38.668Z,18.15
2023-03-29T22:57:45.681Z,16.29
2023-03-29T23:00:51.810Z,14.21
2023-03-29T23:03:58.646Z,14.16
2023-03-29T23:07:04.637Z,13.57
2023-03-29T23:10:16.022Z,14.13
2023-03-29T23:13:26.145Z,13.98
2023-03-29T23:16:32.994Z,13.01
2023-03-29T23:19:39.151Z,13.18
2023-03-29T23:22:45.776Z,13.36
2023-03-29T23:25:56.695Z,12.07
2023-03-29T23:29:04.464Z,12.30
2023-03-29T23:32:10.776Z,11.96
2023-03-29T23:35:18.052Z,11.54
2023-03-29T23:38:24.450Z,11.58
2023-03-29T23:41:33.985Z,11.10
2023-03-29T23:44:40.061Z,11.03
2023-03-29T23:47:48.093Z,10.97
2023-03-29T23:50:54.607Z,10.99
2023-03-29T23:54:01.467Z,10.37
2023-03-29T23:57:11.060Z,10.99
